Planet Ace — 3EYF9 — position and weather

sailwx.info

Track history (hours):
 
Tides and Currents Weather Stations Pressure Air Temp Water Temp Dewpoint Dewpoint Depression Visibility Wind Speed Wind Dir Waves Ship Positions

Planet Ace

Last reported at 2016-Aug-30 14:25 UTC. Time now 2016-Aug-31 04:22 UTC.
Position N 43°35' E 010°18'.

Length 188 m; beam 28.2 m.

Type: Cargo ship. MMSI: 352168000.

Date/timePositionNaut miles runAvg speedWind from/ knotsBaromVisibWave heightAir tempDewpointWater temp
2016-Aug-30 14:25N 43°35' E 010°18'0 0.0
2016-Aug-30 13:28N 43°35' E 010°18'0 0.0
2016-Aug-30 12:31N 43°35' E 010°18'0 0.0
2016-Aug-30 11:28N 43°35' E 010°18'0 0.0
2016-Aug-30 10:31N 43°35' E 010°18'0 0.0
2016-Aug-30 09:31N 43°35' E 010°18'0 0.0
2016-Aug-30 08:28N 43°35' E 010°18'0 0.0
2016-Aug-30 07:28N 43°35' E 010°18'3 3.0
2016-Aug-30 06:33N 43°32' E 010°17'7 7.1
2016-Aug-30 05:33N 43°25' E 010°13'1 0.8
2016-Aug-30 04:33N 43°25' E 010°13'1 0.6
2016-Aug-30 03:33N 43°24' E 010°13'0 0.5
2016-Aug-30 02:33N 43°24' E 010°13'0 0.4
2016-Aug-30 01:33N 43°23' E 010°13'1 0.5
2016-Aug-30 00:33N 43°23' E 010°13'0 0.2
2016-Aug-29 23:33N 43°23' E 010°13'0 0.1
2016-Aug-29 22:33N 43°23' E 010°14'0 0.2
2016-Aug-29 21:33N 43°23' E 010°14'0 0.1
2016-Aug-29 20:33N 43°22' E 010°14'0 0.1
2016-Aug-29 19:33N 43°22' E 010°14'0 0.2
2016-Aug-29 18:33N 43°22' E 010°14'0 0.2
2016-Aug-29 17:33N 43°22' E 010°13'0 0.4
2016-Aug-29 16:33N 43°23' E 010°13'0 0.5
2016-Aug-29 15:33N 43°23' E 010°13'1 0.5
2016-Aug-29 14:33N 43°23' E 010°12'1 0.5
2016-Aug-29 13:33N 43°24' E 010°11'0 0.4
2016-Aug-29 12:33N 43°24' E 010°11'0 0.3
2016-Aug-29 11:33N 43°24' E 010°11'0 0.3
2016-Aug-29 10:33N 43°25' E 010°11'0 0.2
2016-Aug-29 09:33N 43°25' E 010°10'0 0.3
2016-Aug-29 08:33N 43°24' E 010°10'0 0.5
2016-Aug-29 07:33N 43°24' E 010°10'1 0.9
2016-Aug-29 06:33N 43°23' E 010°10'4 4.3
2016-Aug-29 05:33N 43°19' E 010°13'0 0.5
2016-Aug-29 04:33N 43°20' E 010°13'0 0.4
2016-Aug-29 03:33N 43°20' E 010°12'0 0.4
2016-Aug-29 02:33N 43°20' E 010°12'0 0.3
2016-Aug-29 01:33N 43°20' E 010°11'0 0.4
2016-Aug-29 00:33N 43°21' E 010°11'1 0.5
2016-Aug-28 23:33N 43°21' E 010°11'0 0.5
2016-Aug-28 22:33N 43°22' E 010°11'1 0.5
2016-Aug-28 21:33N 43°22' E 010°11'0 0.3
2016-Aug-28 20:33N 43°23' E 010°11'6 6.1
2016-Aug-28 19:33N 43°29' E 010°11'8 7.8
2016-Aug-28 18:33N 43°22' E 010°05'1514.7
2016-Aug-28 17:33N 43°16' E 009°47'1515.0
2016-Aug-28 16:33N 43°11' E 009°27'1615.6
2016-Aug-28 15:33N 43°05' E 009°07'1615.5
2016-Aug-28 14:33N 43°01' E 008°47'1616.2
2016-Aug-28 13:33N 42°55' E 008°26'1616.0
2016-Aug-28 12:33N 42°50' E 008°06'1615.6
2016-Aug-28 11:33N 42°44' E 007°45'1515.5
2016-Aug-28 10:33N 42°39' E 007°26'1515.5
2016-Aug-28 09:33N 42°34' E 007°06'1515.2
2016-Aug-28 08:33N 42°29' E 006°46'1515.3
2016-Aug-28 07:33N 42°24' E 006°27'1716.8
2016-Aug-28 06:33N 42°19' E 006°05'1616.5
2016-Aug-28 05:33N 42°13' E 005°45'1515.0
2016-Aug-28 04:34N 42°08' E 005°26'1514.8
2016-Aug-28 03:34N 42°03' E 005°07'1515.0
2016-Aug-28 02:33N 41°58' E 004°48'2015.4
2016-Aug-28 01:16N 41°51' E 004°23'5915.1
2016-Aug-27 21:22N 41°31' E 003°08'1315.8
2016-Aug-27 20:33N 41°27' E 002°52'1716.6
2016-Aug-27 19:33N 41°22' E 002°31'1615.8
2016-Aug-27 18:33N 41°16' E 002°12'5 1.4
2016-Aug-27 15:14N 41°20' E 002°09'0 0.0
2016-Aug-27 14:32N 41°20' E 002°09'0 0.0
2016-Aug-27 12:20N 41°20' E 002°09'0 0.0
2016-Aug-27 11:32N 41°20' E 002°09'0 0.0
2016-Aug-27 10:26N 41°20' E 002°09'0 0.0
2016-Aug-27 09:08N 41°20' E 002°09'0 0.0
2016-Aug-27 08:08N 41°20' E 002°09'0 0.0
2016-Aug-27 07:32N 41°20' E 002°09'0 0.0
2016-Aug-27 04:14N 41°20' E 002°09'2 2.3
2016-Aug-27 03:33N 41°19' E 002°10'9 9.5
2016-Aug-27 02:34N 41°10' E 002°08'1515.3
2016-Aug-27 01:33N 40°56' E 001°57'1615.6
2016-Aug-27 00:33N 40°42' E 001°48'1615.6
2016-Aug-26 23:33N 40°29' E 001°39'1515.4
2016-Aug-26 22:33N 40°15' E 001°30'1515.3
2016-Aug-26 21:33N 40°01' E 001°20'1915.1
2016-Aug-26 20:18N 39°44' E 001°09'2815.8
2016-Aug-26 18:32N 39°20' E 000°53'6616.2
2016-Aug-26 14:27N 38°21' E 000°12'1516.7
2016-Aug-26 13:32N 38°09' E 000°01'2216.7
2016-Aug-26 12:11N 37°50' W 000°15'1016.4
2016-Aug-26 11:34N 37°42' W 000°23'1616.0
2016-Aug-26 10:33N 37°29' W 000°35'1715.8
2016-Aug-26 09:29N 37°18' W 000°51'21715.6
2016-Aug-25 19:33N 36°02' W 005°04'1717.4
2016-Aug-25 18:34N 35°58' W 005°25'6 0.4
2016-Aug-25 04:30N 35°54' W 005°30'3 2.9
2016-Aug-25 03:32N 35°55' W 005°33'1313.3
2016-Aug-25 02:33N 35°54' W 005°49'7114.3
2016-Aug-24 21:33N 36°05' W 007°16'2015.5
2016-Aug-24 20:15N 36°11' W 007°40'1115.4
2016-Aug-24 19:32N 36°14' W 007°53'7915.9
2016-Aug-24 14:33N 36°40' W 009°26'1615.9
2016-Aug-24 13:33N 36°54' W 009°35'1616.3
2016-Aug-24 12:33N 37°10' W 009°40'1716.8
2016-Aug-24 11:33N 37°27' W 009°45'1716.7
2016-Aug-24 10:33N 37°43' W 009°50'1717.1
2016-Aug-24 09:33N 37°59' W 009°55'1716.7
2016-Aug-24 08:33N 38°16' W 009°60'1716.8
2016-Aug-24 07:33N 38°32' W 010°05'1716.7
2016-Aug-24 06:33N 38°49' W 010°07'3316.6
2016-Aug-24 04:33N 39°22' W 010°07'1716.9
2016-Aug-24 03:33N 39°39' W 010°06'1716.3
2016-Aug-24 02:33N 39°55' W 010°06'1916.7
2016-Aug-24 01:26N 40°14' W 010°06'2016.7
2016-Aug-24 00:14N 40°34' W 010°07'26116.2
2016-Aug-23 08:09N 44°50' W 008°59'1016.3
2016-Aug-23 07:33N 44°58' W 008°52'13616.2
2016-Aug-22 23:10N 46°58' W 007°22'1016.0
2016-Aug-22 22:34N 47°07' W 007°15'1616.0
2016-Aug-22 21:33N 47°21' W 007°03'1616.2
2016-Aug-22 20:33N 47°35' W 006°52'1616.3
2016-Aug-22 19:34N 47°49' W 006°40'1515.4
2016-Aug-22 18:33N 48°03' W 006°29'1814.6
2016-Aug-22 17:20N 48°19' W 006°17'2614.7
2016-Aug-22 15:33N 48°42' W 005°59'1615.7
2016-Aug-22 14:33N 48°55' W 005°47'1716.6
2016-Aug-22 13:33N 49°05' W 005°27'1717.3
2016-Aug-22 12:33N 49°15' W 005°05'1716.4
2016-Aug-22 11:33N 49°26' W 004°46'1414.6
2016-Aug-22 10:33N 49°36' W 004°31'1413.5
2016-Aug-22 09:33N 49°46' W 004°15'1313.1
2016-Aug-22 08:32N 49°54' W 003°59'1313.3
2016-Aug-22 07:33N 50°02' W 003°43'1313.4
2016-Aug-22 06:33N 50°13' W 003°30'1312.9
2016-Aug-22 05:34N 50°25' W 003°25'1212.3
2016-Aug-22 04:33N 50°25' W 003°06'1616.1
2016-Aug-22 03:33N 50°25' W 002°41'1716.8
2016-Aug-22 02:32N 50°25' W 002°13'1515.4
2016-Aug-22 01:31N 50°26' W 001°49'1313.3
2016-Aug-22 00:33N 50°26' W 001°29'1211.6
2016-Aug-21 23:34N 50°27' W 001°11'1110.5
2016-Aug-21 22:32N 50°26' W 000°54'1010.4
2016-Aug-21 21:34N 50°28' W 000°38'1211.8
2016-Aug-21 20:33N 50°30' W 000°20'1414.1
2016-Aug-21 19:34N 50°32' E 000°02'1614.9
2016-Aug-21 18:28N 50°36' E 000°27'2714.3
2016-Aug-21 16:33N 50°51' E 001°03'1312.6
2016-Aug-21 15:34N 50°59' E 001°18'1110.9
2016-Aug-21 14:33N 51°06' E 001°31'1110.8
2016-Aug-21 13:34N 51°15' E 001°41'1413.9
2016-Aug-21 12:33N 51°29' E 001°46'1616.1
2016-Aug-21 11:33N 51°45' E 001°44'1717.1
2016-Aug-21 10:33N 52°02' E 001°47'3817.0
2016-Aug-21 08:20N 52°38' E 002°04'1316.3
2016-Aug-21 07:33N 52°49' E 001°52'1717.0
2016-Aug-21 06:33N 52°60' E 001°31'1515.4
2016-Aug-21 05:33N 53°12' E 001°16'1515.3
2016-Aug-21 04:33N 53°26' E 001°04'1815.8
2016-Aug-21 03:26N 53°41' E 000°47'1214.1
2016-Aug-21 02:33N 53°50' E 000°34'1414.4
2016-Aug-21 01:34N 54°01' E 000°18'1413.7
2016-Aug-21 00:33N 54°12' E 000°03'1313.1
2016-Aug-20 23:33N 54°22' W 000°11'1313.3
2016-Aug-20 22:34N 54°32' W 000°25'1413.6
2016-Aug-20 21:33N 54°42' W 000°42'1414.1
2016-Aug-20 20:34N 54°51' W 001°00'1514.8
2016-Aug-20 19:33N 55°01' W 001°19'5 4.9
2016-Aug-20 18:29N 54°59' W 001°28'0 0.0
2016-Aug-20 17:32N 54°59' W 001°28'0 0.0
2016-Aug-20 16:32N 54°59' W 001°28'0 0.0
2016-Aug-20 15:32N 54°59' W 001°28'0 0.0
2016-Aug-20 14:32N 54°59' W 001°28'  
Track history (hours):
 
Tides and Currents Weather Stations Pressure Air Temp Water Temp Dewpoint Dewpoint Depression Visibility Wind Speed Wind Dir Waves Ship Positions

Planet Ace

Last reported at 2016-Aug-30 14:25 UTC. Time now 2016-Aug-31 04:22 UTC.
Position N 43°35' E 010°18'.

Length 188 m; beam 28.2 m.

Type: Cargo ship. MMSI: 352168000.

Date/timePositionNaut miles runAvg speedWind from/ knotsBaromVisibWave heightAir tempDewpointWater temp
2016-Aug-30 14:25N 43°35' E 010°18'0 0.0
2016-Aug-30 13:28N 43°35' E 010°18'0 0.0
2016-Aug-30 12:31N 43°35' E 010°18'0 0.0
2016-Aug-30 11:28N 43°35' E 010°18'0 0.0
2016-Aug-30 10:31N 43°35' E 010°18'0 0.0
2016-Aug-30 09:31N 43°35' E 010°18'0 0.0
2016-Aug-30 08:28N 43°35' E 010°18'0 0.0
2016-Aug-30 07:28N 43°35' E 010°18'3 3.0
2016-Aug-30 06:33N 43°32' E 010°17'7 7.1
2016-Aug-30 05:33N 43°25' E 010°13'1 0.8
2016-Aug-30 04:33N 43°25' E 010°13'1 0.6
2016-Aug-30 03:33N 43°24' E 010°13'0 0.5
2016-Aug-30 02:33N 43°24' E 010°13'0 0.4
2016-Aug-30 01:33N 43°23' E 010°13'1 0.5
2016-Aug-30 00:33N 43°23' E 010°13'0 0.2
2016-Aug-29 23:33N 43°23' E 010°13'0 0.1
2016-Aug-29 22:33N 43°23' E 010°14'0 0.2
2016-Aug-29 21:33N 43°23' E 010°14'0 0.1
2016-Aug-29 20:33N 43°22' E 010°14'0 0.1
2016-Aug-29 19:33N 43°22' E 010°14'0 0.2
2016-Aug-29 18:33N 43°22' E 010°14'0 0.2
2016-Aug-29 17:33N 43°22' E 010°13'0 0.4
2016-Aug-29 16:33N 43°23' E 010°13'0 0.5
2016-Aug-29 15:33N 43°23' E 010°13'1 0.5
2016-Aug-29 14:33N 43°23' E 010°12'1 0.5
2016-Aug-29 13:33N 43°24' E 010°11'0 0.4
2016-Aug-29 12:33N 43°24' E 010°11'0 0.3
2016-Aug-29 11:33N 43°24' E 010°11'0 0.3
2016-Aug-29 10:33N 43°25' E 010°11'0 0.2
2016-Aug-29 09:33N 43°25' E 010°10'0 0.3
2016-Aug-29 08:33N 43°24' E 010°10'0 0.5
2016-Aug-29 07:33N 43°24' E 010°10'1 0.9
2016-Aug-29 06:33N 43°23' E 010°10'4 4.3
2016-Aug-29 05:33N 43°19' E 010°13'0 0.5
2016-Aug-29 04:33N 43°20' E 010°13'0 0.4
2016-Aug-29 03:33N 43°20' E 010°12'0 0.4
2016-Aug-29 02:33N 43°20' E 010°12'0 0.3
2016-Aug-29 01:33N 43°20' E 010°11'0 0.4
2016-Aug-29 00:33N 43°21' E 010°11'1 0.5
2016-Aug-28 23:33N 43°21' E 010°11'0 0.5
2016-Aug-28 22:33N 43°22' E 010°11'1 0.5
2016-Aug-28 21:33N 43°22' E 010°11'0 0.3
2016-Aug-28 20:33N 43°23' E 010°11'6 6.1
2016-Aug-28 19:33N 43°29' E 010°11'8 7.8
2016-Aug-28 18:33N 43°22' E 010°05'1514.7
2016-Aug-28 17:33N 43°16' E 009°47'1515.0
2016-Aug-28 16:33N 43°11' E 009°27'1615.6
2016-Aug-28 15:33N 43°05' E 009°07'1615.5
2016-Aug-28 14:33N 43°01' E 008°47'1616.2
2016-Aug-28 13:33N 42°55' E 008°26'1616.0
2016-Aug-28 12:33N 42°50' E 008°06'1615.6
2016-Aug-28 11:33N 42°44' E 007°45'1515.5
2016-Aug-28 10:33N 42°39' E 007°26'1515.5
2016-Aug-28 09:33N 42°34' E 007°06'1515.2
2016-Aug-28 08:33N 42°29' E 006°46'1515.3
2016-Aug-28 07:33N 42°24' E 006°27'1716.8
2016-Aug-28 06:33N 42°19' E 006°05'1616.5
2016-Aug-28 05:33N 42°13' E 005°45'1515.0
2016-Aug-28 04:34N 42°08' E 005°26'1514.8
2016-Aug-28 03:34N 42°03' E 005°07'1515.0
2016-Aug-28 02:33N 41°58' E 004°48'2015.4
2016-Aug-28 01:16N 41°51' E 004°23'5915.1
2016-Aug-27 21:22N 41°31' E 003°08'1315.8
2016-Aug-27 20:33N 41°27' E 002°52'1716.6
2016-Aug-27 19:33N 41°22' E 002°31'1615.8
2016-Aug-27 18:33N 41°16' E 002°12'5 1.4
2016-Aug-27 15:14N 41°20' E 002°09'0 0.0
2016-Aug-27 14:32N 41°20' E 002°09'0 0.0
2016-Aug-27 12:20N 41°20' E 002°09'0 0.0
2016-Aug-27 11:32N 41°20' E 002°09'0 0.0
2016-Aug-27 10:26N 41°20' E 002°09'0 0.0
2016-Aug-27 09:08N 41°20' E 002°09'0 0.0
2016-Aug-27 08:08N 41°20' E 002°09'0 0.0
2016-Aug-27 07:32N 41°20' E 002°09'0 0.0
2016-Aug-27 04:14N 41°20' E 002°09'2 2.3
2016-Aug-27 03:33N 41°19' E 002°10'9 9.5
2016-Aug-27 02:34N 41°10' E 002°08'1515.3
2016-Aug-27 01:33N 40°56' E 001°57'1615.6
2016-Aug-27 00:33N 40°42' E 001°48'1615.6
2016-Aug-26 23:33N 40°29' E 001°39'1515.4
2016-Aug-26 22:33N 40°15' E 001°30'1515.3
2016-Aug-26 21:33N 40°01' E 001°20'1915.1
2016-Aug-26 20:18N 39°44' E 001°09'2815.8
2016-Aug-26 18:32N 39°20' E 000°53'6616.2
2016-Aug-26 14:27N 38°21' E 000°12'1516.7
2016-Aug-26 13:32N 38°09' E 000°01'2216.7
2016-Aug-26 12:11N 37°50' W 000°15'1016.4
2016-Aug-26 11:34N 37°42' W 000°23'1616.0
2016-Aug-26 10:33N 37°29' W 000°35'1715.8
2016-Aug-26 09:29N 37°18' W 000°51'21715.6
2016-Aug-25 19:33N 36°02' W 005°04'1717.4
2016-Aug-25 18:34N 35°58' W 005°25'6 0.4
2016-Aug-25 04:30N 35°54' W 005°30'3 2.9
2016-Aug-25 03:32N 35°55' W 005°33'1313.3
2016-Aug-25 02:33N 35°54' W 005°49'7114.3
2016-Aug-24 21:33N 36°05' W 007°16'2015.5
2016-Aug-24 20:15N 36°11' W 007°40'1115.4
2016-Aug-24 19:32N 36°14' W 007°53'7915.9
2016-Aug-24 14:33N 36°40' W 009°26'1615.9
2016-Aug-24 13:33N 36°54' W 009°35'1616.3
2016-Aug-24 12:33N 37°10' W 009°40'1716.8
2016-Aug-24 11:33N 37°27' W 009°45'1716.7
2016-Aug-24 10:33N 37°43' W 009°50'1717.1
2016-Aug-24 09:33N 37°59' W 009°55'1716.7
2016-Aug-24 08:33N 38°16' W 009°60'1716.8
2016-Aug-24 07:33N 38°32' W 010°05'1716.7
2016-Aug-24 06:33N 38°49' W 010°07'3316.6
2016-Aug-24 04:33N 39°22' W 010°07'1716.9
2016-Aug-24 03:33N 39°39' W 010°06'1716.3
2016-Aug-24 02:33N 39°55' W 010°06'1916.7
2016-Aug-24 01:26N 40°14' W 010°06'2016.7
2016-Aug-24 00:14N 40°34' W 010°07'26116.2
2016-Aug-23 08:09N 44°50' W 008°59'1016.3
2016-Aug-23 07:33N 44°58' W 008°52'13616.2
2016-Aug-22 23:10N 46°58' W 007°22'1016.0
2016-Aug-22 22:34N 47°07' W 007°15'1616.0
2016-Aug-22 21:33N 47°21' W 007°03'1616.2
2016-Aug-22 20:33N 47°35' W 006°52'1616.3
2016-Aug-22 19:34N 47°49' W 006°40'1515.4
2016-Aug-22 18:33N 48°03' W 006°29'1814.6
2016-Aug-22 17:20N 48°19' W 006°17'2614.7
2016-Aug-22 15:33N 48°42' W 005°59'1615.7
2016-Aug-22 14:33N 48°55' W 005°47'1716.6
2016-Aug-22 13:33N 49°05' W 005°27'1717.3
2016-Aug-22 12:33N 49°15' W 005°05'1716.4
2016-Aug-22 11:33N 49°26' W 004°46'1414.6
2016-Aug-22 10:33N 49°36' W 004°31'1413.5
2016-Aug-22 09:33N 49°46' W 004°15'1313.1
2016-Aug-22 08:32N 49°54' W 003°59'1313.3
2016-Aug-22 07:33N 50°02' W 003°43'1313.4
2016-Aug-22 06:33N 50°13' W 003°30'1312.9
2016-Aug-22 05:34N 50°25' W 003°25'1212.3
2016-Aug-22 04:33N 50°25' W 003°06'1616.1
2016-Aug-22 03:33N 50°25' W 002°41'1716.8
2016-Aug-22 02:32N 50°25' W 002°13'1515.4
2016-Aug-22 01:31N 50°26' W 001°49'1313.3
2016-Aug-22 00:33N 50°26' W 001°29'1211.6
2016-Aug-21 23:34N 50°27' W 001°11'1110.5
2016-Aug-21 22:32N 50°26' W 000°54'1010.4
2016-Aug-21 21:34N 50°28' W 000°38'1211.8
2016-Aug-21 20:33N 50°30' W 000°20'1414.1
2016-Aug-21 19:34N 50°32' E 000°02'1614.9
2016-Aug-21 18:28N 50°36' E 000°27'2714.3
2016-Aug-21 16:33N 50°51' E 001°03'1312.6
2016-Aug-21 15:34N 50°59' E 001°18'1110.9
2016-Aug-21 14:33N 51°06' E 001°31'1110.8
2016-Aug-21 13:34N 51°15' E 001°41'1413.9
2016-Aug-21 12:33N 51°29' E 001°46'1616.1
2016-Aug-21 11:33N 51°45' E 001°44'1717.1
2016-Aug-21 10:33N 52°02' E 001°47'3817.0
2016-Aug-21 08:20N 52°38' E 002°04'1316.3
2016-Aug-21 07:33N 52°49' E 001°52'1717.0
2016-Aug-21 06:33N 52°60' E 001°31'1515.4
2016-Aug-21 05:33N 53°12' E 001°16'1515.3
2016-Aug-21 04:33N 53°26' E 001°04'1815.8
2016-Aug-21 03:26N 53°41' E 000°47'1214.1
2016-Aug-21 02:33N 53°50' E 000°34'1414.4
2016-Aug-21 01:34N 54°01' E 000°18'1413.7
2016-Aug-21 00:33N 54°12' E 000°03'1313.1
2016-Aug-20 23:33N 54°22' W 000°11'1313.3
2016-Aug-20 22:34N 54°32' W 000°25'1413.6
2016-Aug-20 21:33N 54°42' W 000°42'1414.1
2016-Aug-20 20:34N 54°51' W 001°00'1514.8
2016-Aug-20 19:33N 55°01' W 001°19'5 4.9
2016-Aug-20 18:29N 54°59' W 001°28'0 0.0
2016-Aug-20 17:32N 54°59' W 001°28'0 0.0
2016-Aug-20 16:32N 54°59' W 001°28'0 0.0
2016-Aug-20 15:32N 54°59' W 001°28'0 0.0
2016-Aug-20 14:32N 54°59' W 001°28'  

Dump ship's entire track history